Time;durP1;ratioP1;P1;durP2;ratioP2;P2;SDS_P1;SDS_P2;PMS_P1;PMS_P2;Temp;Humidity;BMP_temperature;BMP_pressure;BME280_temperature;BME280_humidity;BME280_pressure;Samples;Min_cycle;Max_cycle;Signal;HPM_P1;HPM_P2
2021/09/02 00:02:30;;;;;;;7.53;5.37;;;;;;;;;;5002582;28;20205;-85
2021/09/02 00:05:35;;;;;;;9.93;5.87;;;;;;;;;;5003054;28;20225;-86
2021/09/02 00:08:39;;;;;;;8.17;4.97;;;;;;;;;;5025415;28;20205;-85
2021/09/02 00:11:43;;;;;;;7.17;5.37;;;;;;;;;;5002951;28;20526;-85
2021/09/02 00:14:47;;;;;;;9.73;6.20;;;;;;;;;;5002336;28;20225;-85
2021/09/02 00:17:53;;;;;;;7.40;5.63;;;;;;;;;;5004239;28;20252;-85
2021/09/02 00:20:57;;;;;;;11.63;6.00;;;;;;;;;;5006307;28;20533;-87
2021/09/02 00:24:01;;;;;;;9.63;6.10;;;;;;;;;;5028315;28;20221;-85
2021/09/02 00:27:05;;;;;;;9.27;6.07;;;;;;;;;;5006387;28;20182;-85
2021/09/02 00:30:10;;;;;;;10.60;6.10;;;;;;;;;;5005640;28;20205;-86
2021/09/02 00:33:16;;;;;;;8.47;6.00;;;;;;;;;;5039362;28;20170;-89
2021/09/02 00:36:20;;;;;;;11.57;6.00;;;;;;;;;;5029890;28;20197;-87
2021/09/02 00:39:25;;;;;;;8.40;5.90;;;;;;;;;;5001201;28;20210;-86
2021/09/02 00:42:29;;;;;;;6.73;5.73;;;;;;;;;;4974186;28;20190;-85
2021/09/02 00:45:33;;;;;;;10.73;5.53;;;;;;;;;;5007410;28;20577;-86
2021/09/02 00:48:37;;;;;;;7.63;5.87;;;;;;;;;;4985369;28;20210;-85
2021/09/02 00:51:41;;;;;;;6.00;5.07;;;;;;;;;;4994697;28;20193;-85
2021/09/02 00:54:50;;;;;;;8.73;6.80;;;;;;;;;;5004921;28;20213;-85
2021/09/02 00:57:54;;;;;;;7.60;5.60;;;;;;;;;;4993460;28;20190;-84
2021/09/02 01:00:58;;;;;;;8.40;5.67;;;;;;;;;;5004680;28;20182;-85
2021/09/02 01:04:04;;;;;;;9.60;5.40;;;;;;;;;;5004500;28;20221;-87
2021/09/02 01:07:09;;;;;;;9.07;5.70;;;;;;;;;;5015523;28;20193;-87
2021/09/02 01:10:14;;;;;;;8.27;6.10;;;;;;;;;;5015563;28;20217;-85
2021/09/02 01:13:19;;;;;;;10.17;5.87;;;;;;;;;;5015596;28;20177;-84
2021/09/02 01:16:23;;;;;;;8.37;5.53;;;;;;;;;;4984729;28;20245;-87
2021/09/02 01:19:27;;;;;;;7.67;5.97;;;;;;;;;;4985104;28;20178;-86
2021/09/02 01:22:32;;;;;;;8.77;6.20;;;;;;;;;;4985929;28;20549;-86
2021/09/02 01:25:42;;;;;;;7.33;5.63;;;;;;;;;;4998975;28;20221;-88
2021/09/02 01:28:47;;;;;;;8.50;6.10;;;;;;;;;;5003108;28;20217;-89
2021/09/02 01:31:53;;;;;;;10.87;6.47;;;;;;;;;;5004298;28;20182;-88
2021/09/02 01:34:59;;;;;;;9.67;6.37;;;;;;;;;;5015645;28;20213;-88
2021/09/02 01:38:06;;;;;;;13.17;6.13;;;;;;;;;;5003593;28;20186;-89
2021/09/02 01:41:10;;;;;;;9.27;6.37;;;;;;;;;;5026625;28;20185;-88
2021/09/02 01:44:15;;;;;;;9.10;5.93;;;;;;;;;;5014816;28;20225;-88
2021/09/02 01:47:24;;;;;;;7.63;5.97;;;;;;;;;;4992376;28;20177;-87
2021/09/02 01:50:32;;;;;;;8.70;6.83;;;;;;;;;;5003607;28;20664;-88
2021/09/02 01:53:39;;;;;;;7.23;5.90;;;;;;;;;;5003537;28;20217;-88
2021/09/02 01:56:42;;;;;;;7.47;5.67;;;;;;;;;;4992263;28;20178;-88
2021/09/02 01:59:46;;;;;;;7.53;6.37;;;;;;;;;;5014595;28;20178;-88
2021/09/02 02:02:51;;;;;;;8.27;5.87;;;;;;;;;;5003356;28;20173;-88
2021/09/02 02:05:55;;;;;;;12.50;5.97;;;;;;;;;;4995094;28;20629;-88
2021/09/02 02:09:00;;;;;;;8.13;6.07;;;;;;;;;;4972513;28;20205;-88
2021/09/02 02:12:05;;;;;;;10.43;6.40;;;;;;;;;;4983895;28;20182;-88
2021/09/02 02:15:10;;;;;;;8.30;6.20;;;;;;;;;;4972410;28;20221;-88
2021/09/02 02:18:14;;;;;;;9.90;5.97;;;;;;;;;;4983425;28;20206;-88
2021/09/02 02:21:18;;;;;;;9.10;5.87;;;;;;;;;;4994553;28;20186;-88
2021/09/02 02:24:23;;;;;;;9.77;6.67;;;;;;;;;;4983306;28;20229;-88
2021/09/02 02:27:26;;;;;;;8.60;6.23;;;;;;;;;;4983724;28;20631;-88
2021/09/02 02:30:31;;;;;;;8.40;5.73;;;;;;;;;;4983094;28;20201;-88
2021/09/02 02:33:35;;;;;;;9.13;5.80;;;;;;;;;;4983303;28;20221;-88
2021/09/02 02:36:39;;;;;;;9.37;6.73;;;;;;;;;;4996148;28;20648;-89
2021/09/02 02:39:44;;;;;;;8.13;6.20;;;;;;;;;;5002553;28;20177;-88
2021/09/02 02:42:48;;;;;;;9.13;6.53;;;;;;;;;;5002153;28;20174;-88
2021/09/02 02:45:53;;;;;;;8.13;6.40;;;;;;;;;;5002569;28;20565;-88
2021/09/02 02:48:57;;;;;;;10.90;6.60;;;;;;;;;;5013687;28;20189;-88
2021/09/02 02:52:02;;;;;;;8.83;6.10;;;;;;;;;;5002558;28;20185;-88
2021/09/02 02:55:08;;;;;;;8.77;6.97;;;;;;;;;;5002640;28;20221;-88
2021/09/02 02:58:11;;;;;;;8.20;6.23;;;;;;;;;;4991140;28;20205;-88
2021/09/02 03:01:16;;;;;;;6.93;6.10;;;;;;;;;;5013257;28;20205;-88
2021/09/02 03:04:20;;;;;;;9.23;6.20;;;;;;;;;;5013478;28;20213;-88
2021/09/02 03:07:25;;;;;;;9.77;6.40;;;;;;;;;;5002610;28;20185;-88
2021/09/02 03:10:29;;;;;;;6.77;5.57;;;;;;;;;;4982704;28;20665;-88
2021/09/02 03:13:33;;;;;;;8.60;6.30;;;;;;;;;;4982906;28;20681;-89
2021/09/02 03:16:37;;;;;;;7.93;6.00;;;;;;;;;;4993691;28;20186;-88
2021/09/02 03:19:41;;;;;;;11.67;7.03;;;;;;;;;;4997645;28;20201;-88
2021/09/02 03:22:45;;;;;;;17.87;8.20;;;;;;;;;;4997563;28;20200;-88
2021/09/02 03:25:49;;;;;;;10.27;6.43;;;;;;;;;;5001833;28;20201;-89
2021/09/02 03:28:53;;;;;;;7.97;6.73;;;;;;;;;;5001929;28;20189;-88
2021/09/02 03:31:57;;;;;;;7.53;5.70;;;;;;;;;;5002225;28;20185;-88
2021/09/02 03:35:01;;;;;;;12.17;6.53;;;;;;;;;;5013550;28;20221;-88
2021/09/02 03:38:06;;;;;;;8.03;6.30;;;;;;;;;;5001521;28;20185;-88
2021/09/02 03:41:10;;;;;;;7.93;6.33;;;;;;;;;;5013048;28;20186;-88
2021/09/02 03:44:14;;;;;;;9.07;5.97;;;;;;;;;;5002323;28;20240;-86
2021/09/02 03:47:19;;;;;;;9.03;6.10;;;;;;;;;;5002842;28;20185;-85
2021/09/02 03:50:23;;;;;;;9.27;5.80;;;;;;;;;;5002262;28;20663;-85
2021/09/02 03:53:27;;;;;;;7.97;6.17;;;;;;;;;;5005660;28;20181;-85
2021/09/02 03:56:31;;;;;;;6.53;5.77;;;;;;;;;;5006285;28;20181;-85
2021/09/02 03:59:35;;;;;;;7.10;5.37;;;;;;;;;;5006634;28;20181;-85
2021/09/02 04:02:40;;;;;;;8.33;6.03;;;;;;;;;;5006634;28;20560;-85
2021/09/02 04:05:44;;;;;;;11.33;6.13;;;;;;;;;;5006177;28;20201;-84
2021/09/02 04:08:50;;;;;;;7.20;5.80;;;;;;;;;;5006865;28;20177;-85
2021/09/02 04:11:53;;;;;;;9.40;6.40;;;;;;;;;;5017939;28;20521;-85
2021/09/02 04:14:58;;;;;;;10.00;5.97;;;;;;;;;;5017021;28;20221;-84
2021/09/02 04:18:02;;;;;;;7.07;5.90;;;;;;;;;;5006311;28;20189;-85
2021/09/02 04:21:07;;;;;;;11.03;6.47;;;;;;;;;;5028582;28;20189;-84
2021/09/02 04:24:11;;;;;;;10.03;6.37;;;;;;;;;;5005500;28;20217;-84
2021/09/02 04:27:17;;;;;;;8.00;6.07;;;;;;;;;;5017207;28;20181;-84
2021/09/02 04:30:21;;;;;;;10.70;6.97;;;;;;;;;;4986081;28;20210;-84
2021/09/02 04:33:25;;;;;;;8.93;6.60;;;;;;;;;;4997300;28;20182;-85
2021/09/02 04:36:29;;;;;;;10.50;6.60;;;;;;;;;;4985590;28;20186;-84
2021/09/02 04:39:33;;;;;;;12.03;6.47;;;;;;;;;;4986413;28;20186;-84
2021/09/02 04:42:38;;;;;;;8.07;6.40;;;;;;;;;;4985879;28;20190;-85
2021/09/02 04:45:42;;;;;;;10.53;6.70;;;;;;;;;;4996915;28;20572;-85
2021/09/02 04:48:46;;;;;;;9.47;6.97;;;;;;;;;;4985604;28;20182;-85
2021/09/02 04:51:51;;;;;;;8.13;5.90;;;;;;;;;;4974698;28;20511;-85
2021/09/02 04:54:55;;;;;;;9.90;7.03;;;;;;;;;;4985678;28;20225;-85
2021/09/02 04:58:03;;;;;;;10.70;7.13;;;;;;;;;;4985700;28;20657;-85
2021/09/02 05:01:07;;;;;;;10.43;6.70;;;;;;;;;;4986103;28;20621;-86
2021/09/02 05:04:11;;;;;;;11.87;7.07;;;;;;;;;;4998674;28;20225;-87
2021/09/02 05:07:15;;;;;;;8.90;6.50;;;;;;;;;;5004285;28;20201;-86
2021/09/02 05:10:20;;;;;;;13.70;6.93;;;;;;;;;;4992554;28;20213;-86
2021/09/02 05:13:24;;;;;;;12.10;6.70;;;;;;;;;;5027132;28;20201;-85
2021/09/02 05:16:29;;;;;;;11.90;6.93;;;;;;;;;;5019441;28;20186;-87
2021/09/02 05:19:32;;;;;;;13.37;6.17;;;;;;;;;;5008284;28;20540;-85
2021/09/02 05:22:37;;;;;;;11.23;6.73;;;;;;;;;;5018329;28;20181;-85
2021/09/02 05:25:41;;;;;;;10.73;7.13;;;;;;;;;;5010365;28;20197;-85
2021/09/02 05:28:45;;;;;;;12.17;6.70;;;;;;;;;;4996856;28;20181;-86
2021/09/02 05:31:49;;;;;;;12.90;8.27;;;;;;;;;;5008062;28;20209;-87
2021/09/02 05:34:54;;;;;;;11.07;7.53;;;;;;;;;;5005751;28;20225;-84
2021/09/02 05:37:58;;;;;;;12.13;8.10;;;;;;;;;;5018235;28;20189;-84
2021/09/02 05:41:02;;;;;;;14.97;9.07;;;;;;;;;;5017418;28;20185;-84
2021/09/02 05:44:07;;;;;;;17.33;9.20;;;;;;;;;;4997900;28;20225;-86
2021/09/02 05:47:11;;;;;;;12.67;8.37;;;;;;;;;;5016585;28;20194;-84
2021/09/02 05:50:15;;;;;;;11.67;7.73;;;;;;;;;;5017548;28;20205;-84
2021/09/02 05:53:21;;;;;;;10.90;7.27;;;;;;;;;;4993950;28;20201;-84
2021/09/02 05:56:25;;;;;;;12.03;6.90;;;;;;;;;;5006353;28;20181;-84
2021/09/02 05:59:29;;;;;;;12.50;7.90;;;;;;;;;;4987226;28;20178;-84
2021/09/02 06:02:33;;;;;;;16.37;8.63;;;;;;;;;;4998591;28;20182;-84
2021/09/02 06:05:37;;;;;;;16.80;8.20;;;;;;;;;;4999162;28;20206;-84
2021/09/02 06:08:41;;;;;;;10.37;7.10;;;;;;;;;;4986938;28;20182;-84
2021/09/02 06:11:45;;;;;;;15.03;8.60;;;;;;;;;;4986541;28;20210;-84
2021/09/02 06:14:49;;;;;;;16.33;8.37;;;;;;;;;;4998359;28;20221;-84
2021/09/02 06:17:53;;;;;;;13.90;7.77;;;;;;;;;;4998024;28;20186;-83
2021/09/02 06:20:57;;;;;;;11.10;7.93;;;;;;;;;;4998317;28;20537;-84
2021/09/02 06:24:02;;;;;;;15.93;7.97;;;;;;;;;;4997827;28;20695;-84
2021/09/02 06:27:06;;;;;;;12.97;7.67;;;;;;;;;;4986427;28;20186;-86
2021/09/02 06:30:10;;;;;;;15.17;7.23;;;;;;;;;;4986981;28;20182;-84
2021/09/02 06:33:14;;;;;;;18.17;8.03;;;;;;;;;;4998554;28;20542;-84
2021/09/02 06:36:20;;;;;;;14.07;7.90;;;;;;;;;;4986940;28;20204;-84
2021/09/02 06:39:24;;;;;;;15.30;9.37;;;;;;;;;;4997726;28;20206;-84
2021/09/02 06:42:29;;;;;;;13.77;8.90;;;;;;;;;;4997307;28;20531;-84
2021/09/02 06:45:33;;;;;;;12.53;8.73;;;;;;;;;;4989244;28;20640;-83
2021/09/02 06:48:37;;;;;;;13.90;8.80;;;;;;;;;;5006591;28;20177;-85
2021/09/02 06:51:41;;;;;;;14.13;8.90;;;;;;;;;;5005647;28;20554;-85
2021/09/02 06:54:45;;;;;;;17.63;9.63;;;;;;;;;;5017017;28;20696;-84
2021/09/02 06:57:49;;;;;;;16.07;9.30;;;;;;;;;;5005625;28;20185;-85
2021/09/02 07:00:53;;;;;;;17.40;9.33;;;;;;;;;;5006710;28;20181;-84
2021/09/02 07:03:57;;;;;;;12.00;8.33;;;;;;;;;;5005610;28;20224;-85
2021/09/02 07:07:02;;;;;;;14.07;8.17;;;;;;;;;;5006017;28;20509;-84
2021/09/02 07:10:07;;;;;;;12.83;9.67;;;;;;;;;;5006211;28;20181;-84
2021/09/02 07:13:11;;;;;;;11.77;8.57;;;;;;;;;;5005926;28;20185;-86
2021/09/02 07:16:15;;;;;;;14.63;9.30;;;;;;;;;;5010725;28;20185;-84
2021/09/02 07:19:19;;;;;;;13.53;9.33;;;;;;;;;;4986711;28;20206;-84
2021/09/02 07:22:23;;;;;;;14.03;9.90;;;;;;;;;;4986317;28;20186;-84
2021/09/02 07:25:27;;;;;;;12.70;9.83;;;;;;;;;;4997143;28;20214;-84
2021/09/02 07:28:31;;;;;;;13.17;9.07;;;;;;;;;;4996385;28;20543;-84
2021/09/02 07:31:41;;;;;;;11.60;8.90;;;;;;;;;;4997033;28;20210;-85
2021/09/02 07:34:45;;;;;;;12.80;8.77;;;;;;;;;;4985873;28;20681;-85
2021/09/02 07:37:49;;;;;;;11.80;8.40;;;;;;;;;;4985963;28;20174;-85
2021/09/02 07:40:53;;;;;;;9.90;8.10;;;;;;;;;;5007531;28;20174;-85
2021/09/02 07:43:57;;;;;;;12.60;8.10;;;;;;;;;;4974094;28;20229;-84
2021/09/02 07:47:01;;;;;;;11.03;8.03;;;;;;;;;;4996951;28;20182;-84
2021/09/02 07:50:07;;;;;;;10.67;8.33;;;;;;;;;;4985720;28;20182;-85
2021/09/02 07:53:10;;;;;;;9.43;7.37;;;;;;;;;;4985930;28;20174;-86
2021/09/02 07:56:15;;;;;;;9.07;7.57;;;;;;;;;;4985069;28;20179;-86
2021/09/02 07:59:21;;;;;;;14.47;7.60;;;;;;;;;;4985000;28;20197;-85
2021/09/02 08:02:25;;;;;;;9.73;6.83;;;;;;;;;;4978171;28;20194;-84
2021/09/02 08:05:29;;;;;;;10.60;6.77;;;;;;;;;;4998056;28;20202;-89
2021/09/02 08:08:34;;;;;;;7.53;6.27;;;;;;;;;;5035355;28;20204;-85
2021/09/02 08:11:38;;;;;;;8.77;6.23;;;;;;;;;;5019546;28;20279;-85
2021/09/02 08:14:42;;;;;;;13.57;6.20;;;;;;;;;;5005034;28;20565;-84
2021/09/02 08:17:47;;;;;;;9.83;6.10;;;;;;;;;;5004677;28;20181;-85
2021/09/02 08:20:51;;;;;;;7.07;5.83;;;;;;;;;;5004574;28;20181;-85
2021/09/02 08:23:58;;;;;;;9.93;6.13;;;;;;;;;;5005170;28;20213;-85
2021/09/02 08:27:02;;;;;;;7.63;6.07;;;;;;;;;;5005573;28;20182;-86
2021/09/02 08:30:08;;;;;;;7.67;6.27;;;;;;;;;;5006168;28;20190;-86
2021/09/02 08:33:13;;;;;;;10.67;6.20;;;;;;;;;;5006808;28;20194;-85
2021/09/02 08:36:18;;;;;;;13.53;6.10;;;;;;;;;;5006231;28;20648;-85
2021/09/02 08:39:22;;;;;;;7.33;5.27;;;;;;;;;;5006859;28;20181;-85
2021/09/02 08:42:26;;;;;;;8.03;5.80;;;;;;;;;;5009877;28;20173;-85
2021/09/02 08:45:31;;;;;;;8.10;5.67;;;;;;;;;;5016726;28;20231;-86
2021/09/02 08:48:45;;;;;;;6.93;5.10;;;;;;;;;;5029842;28;20185;-85
2021/09/02 08:51:50;;;;;;;11.60;5.67;;;;;;;;;;5028545;28;20220;-85
2021/09/02 08:54:55;;;;;;;8.90;5.67;;;;;;;;;;5028499;28;20220;-86
2021/09/02 08:57:59;;;;;;;7.13;5.63;;;;;;;;;;5052096;28;20648;-85
2021/09/02 09:01:06;;;;;;;11.53;5.40;;;;;;;;;;5028406;28;20168;-85
2021/09/02 09:04:11;;;;;;;8.13;5.20;;;;;;;;;;5038147;28;20221;-85
2021/09/02 09:07:27;;;;;;;7.63;5.90;;;;;;;;;;5005131;28;20199;-85
2021/09/02 09:10:31;;;;;;;9.10;5.37;;;;;;;;;;5008686;28;20257;-85
2021/09/02 09:13:35;;;;;;;6.67;5.23;;;;;;;;;;4997446;28;20210;-85
2021/09/02 09:16:54;;;;;;;10.57;5.30;;;;;;;;;;5007953;28;20543;-85
2021/09/02 09:19:58;;;;;;;11.57;6.13;;;;;;;;;;5008121;28;20204;-85
2021/09/02 09:23:03;;;;;;;6.15;4.70;;;;;;;;;;5007654;28;20193;-85
2021/09/02 09:26:09;;;;;;;7.53;5.03;;;;;;;;;;5018588;28;20197;-85
2021/09/02 09:29:18;;;;;;;7.18;5.03;;;;;;;;;;5008314;28;20197;-85
2021/09/02 09:32:22;;;;;;;5.03;4.32;;;;;;;;;;5019621;28;20205;-85
2021/09/02 09:35:28;;;;;;;6.18;4.30;;;;;;;;;;5010316;28;20218;-85
2021/09/02 09:38:32;;;;;;;6.00;4.47;;;;;;;;;;5007521;28;20196;-86
2021/09/02 09:41:45;;;;;;;4.97;4.28;;;;;;;;;;5007594;28;20178;-86
2021/09/02 09:44:49;;;;;;;5.32;4.63;;;;;;;;;;5006010;28;20586;-88
2021/09/02 09:47:53;;;;;;;6.60;4.53;;;;;;;;;;4984111;28;20192;-89
2021/09/02 09:51:03;;;;;;;5.13;4.22;;;;;;;;;;5002725;28;20196;-88
2021/09/02 09:54:07;;;;;;;7.30;4.68;;;;;;;;;;5020046;28;20223;-88
2021/09/02 09:57:12;;;;;;;8.07;5.00;;;;;;;;;;5003640;28;20638;-88
2021/09/02 10:00:19;;;;;;;5.65;4.78;;;;;;;;;;5003320;28;20190;-89
2021/09/02 10:03:24;;;;;;;6.32;4.93;;;;;;;;;;5002807;28;20182;-88
2021/09/02 10:06:28;;;;;;;12.70;4.93;;;;;;;;;;4992042;28;20222;-88
2021/09/02 10:09:33;;;;;;;4.85;4.13;;;;;;;;;;5025778;28;20526;-88
2021/09/02 10:12:38;;;;;;;5.60;4.07;;;;;;;;;;5002731;28;20228;-88
2021/09/02 10:15:43;;;;;;;6.10;4.57;;;;;;;;;;4989137;28;20210;-88
2021/09/02 10:18:47;;;;;;;5.20;4.30;;;;;;;;;;5003430;28;20625;-89
2021/09/02 10:21:52;;;;;;;5.28;4.40;;;;;;;;;;5013851;28;20185;-85
2021/09/02 10:24:56;;;;;;;5.68;4.32;;;;;;;;;;4994391;28;20565;-85
2021/09/02 10:28:24;;;;;;;6.07;5.22;;;;;;;;;;4986422;28;20190;-85
2021/09/02 10:31:28;;;;;;;7.85;5.35;;;;;;;;;;5002723;28;20568;-89
2021/09/02 10:34:32;;;;;;;6.00;4.93;;;;;;;;;;5002822;28;20228;-90
2021/09/02 10:37:36;;;;;;;5.28;4.65;;;;;;;;;;4990646;28;20200;-85
2021/09/02 10:40:40;;;;;;;6.72;4.30;;;;;;;;;;5013718;28;20203;-85
2021/09/02 10:43:47;;;;;;;8.23;4.43;;;;;;;;;;4991380;28;20228;-85
2021/09/02 10:46:53;;;;;;;5.78;4.28;;;;;;;;;;5001910;28;20259;-85
2021/09/02 10:50:17;;;;;;;5.07;4.22;;;;;;;;;;4995053;28;20177;-85
2021/09/02 10:53:21;;;;;;;6.60;3.95;;;;;;;;;;4994504;28;20217;-85
2021/09/02 10:56:31;;;;;;;22.70;4.45;;;;;;;;;;4992873;28;20218;-84
2021/09/02 10:59:43;;;;;;;7.32;4.97;;;;;;;;;;5001050;28;20209;-85
2021/09/02 11:02:47;;;;;;;5.45;4.38;;;;;;;;;;5001651;28;20180;-85
2021/09/02 11:05:56;;;;;;;5.25;4.40;;;;;;;;;;5008263;28;20546;-85
2021/09/02 11:09:02;;;;;;;9.93;4.80;;;;;;;;;;4983208;28;20190;-85
2021/09/02 11:12:11;;;;;;;7.00;3.67;;;;;;;;;;4998045;28;20218;-86
2021/09/02 11:15:21;;;;;;;5.93;4.32;;;;;;;;;;4971778;28;20224;-85
2021/09/02 11:18:42;;;;;;;4.93;3.78;;;;;;;;;;4992166;28;20306;-86
2021/09/02 11:21:47;;;;;;;7.82;4.53;;;;;;;;;;5002361;28;20184;-86
2021/09/02 11:24:53;;;;;;;8.20;4.07;;;;;;;;;;5001798;28;20675;-85
2021/09/02 11:27:59;;;;;;;7.63;4.18;;;;;;;;;;5012626;28;20194;-85
2021/09/02 11:31:10;;;;;;;5.43;3.85;;;;;;;;;;4993739;28;20191;-85
2021/09/02 11:34:15;;;;;;;9.77;4.00;;;;;;;;;;4969773;28;20361;-85
2021/09/02 11:37:19;;;;;;;5.22;3.90;;;;;;;;;;4987438;28;20196;-85
2021/09/02 11:40:31;;;;;;;4.45;3.72;;;;;;;;;;5012823;28;20191;-85
2021/09/02 11:43:39;;;;;;;6.63;3.47;;;;;;;;;;5001634;28;20212;-85
2021/09/02 11:46:43;;;;;;;5.53;3.55;;;;;;;;;;5002002;28;20193;-85
2021/09/02 11:49:58;;;;;;;7.57;4.05;;;;;;;;;;4982444;28;20202;-86
2021/09/02 11:53:02;;;;;;;5.85;3.55;;;;;;;;;;4994732;28;20215;-85
2021/09/02 11:56:16;;;;;;;6.32;3.78;;;;;;;;;;5001275;28;20208;-85
2021/09/02 11:59:21;;;;;;;6.18;3.75;;;;;;;;;;5001372;28;20203;-85
2021/09/02 12:02:25;;;;;;;7.40;3.47;;;;;;;;;;5001273;28;20204;-85
2021/09/02 12:05:39;;;;;;;7.68;3.50;;;;;;;;;;5001312;28;20708;-85
2021/09/02 12:08:44;;;;;;;5.53;3.47;;;;;;;;;;5012572;28;20654;-85
2021/09/02 12:11:49;;;;;;;8.20;3.70;;;;;;;;;;4991648;28;20646;-85
2021/09/02 12:14:53;;;;;;;4.60;3.25;;;;;;;;;;4985460;28;20230;-85
2021/09/02 12:18:27;;;;;;;7.70;3.58;;;;;;;;;;4989177;28;20193;-85
2021/09/02 12:21:32;;;;;;;7.72;3.45;;;;;;;;;;5004848;28;20200;-85
2021/09/02 12:24:36;;;;;;;4.00;3.15;;;;;;;;;;4996844;28;20222;-85
2021/09/02 12:27:44;;;;;;;5.93;3.42;;;;;;;;;;4997929;28;20194;-85
2021/09/02 12:30:48;;;;;;;7.65;4.15;;;;;;;;;;5016323;28;20200;-85
2021/09/02 12:33:55;;;;;;;7.45;3.83;;;;;;;;;;5019187;28;20227;-85
2021/09/02 12:37:07;;;;;;;4.65;3.33;;;;;;;;;;5015690;28;20545;-86
2021/09/02 12:40:19;;;;;;;5.57;3.72;;;;;;;;;;4993217;28;20207;-85
2021/09/02 12:43:23;;;;;;;6.32;3.50;;;;;;;;;;5003706;28;20527;-86
2021/09/02 12:46:27;;;;;;;4.85;3.60;;;;;;;;;;5015942;28;20192;-84
2021/09/02 12:49:38;;;;;;;4.50;3.85;;;;;;;;;;4990487;28;20643;-86
2021/09/02 12:52:42;;;;;;;7.15;3.83;;;;;;;;;;4993776;28;20216;-85
2021/09/02 12:55:46;;;;;;;6.75;3.75;;;;;;;;;;4998208;28;20204;-85
2021/09/02 12:58:50;;;;;;;3.92;3.50;;;;;;;;;;5004073;28;20544;-85
2021/09/02 13:01:54;;;;;;;13.23;4.43;;;;;;;;;;4982961;28;20547;-85
2021/09/02 13:04:58;;;;;;;4.78;3.53;;;;;;;;;;4992738;28;20226;-85
2021/09/02 13:08:04;;;;;;;6.75;3.63;;;;;;;;;;5015282;28;20179;-85
2021/09/02 13:11:08;;;;;;;4.85;3.67;;;;;;;;;;5015580;28;20183;-86
2021/09/02 13:14:12;;;;;;;5.22;3.00;;;;;;;;;;5014804;28;20226;-85
2021/09/02 13:17:16;;;;;;;6.30;3.58;;;;;;;;;;4992165;28;20201;-87
2021/09/02 13:20:22;;;;;;;3.40;2.75;;;;;;;;;;5015397;28;20203;-87
2021/09/02 13:23:26;;;;;;;4.43;3.30;;;;;;;;;;4993259;28;20638;-87
2021/09/02 13:26:30;;;;;;;5.43;3.50;;;;;;;;;;5003480;28;20188;-87
2021/09/02 13:29:34;;;;;;;11.80;3.65;;;;;;;;;;5004250;28;20175;-87
2021/09/02 13:32:40;;;;;;;4.80;3.55;;;;;;;;;;5026520;28;20209;-87
2021/09/02 13:35:45;;;;;;;6.20;3.55;;;;;;;;;;5004328;28;20190;-87
2021/09/02 13:38:49;;;;;;;5.78;3.40;;;;;;;;;;5004083;28;20199;-86
2021/09/02 13:41:53;;;;;;;4.95;3.28;;;;;;;;;;5015053;28;20666;-87
2021/09/02 13:44:57;;;;;;;5.18;3.42;;;;;;;;;;5003672;28;20689;-87
2021/09/02 13:48:01;;;;;;;8.48;4.05;;;;;;;;;;5014348;28;20221;-87
2021/09/02 13:51:08;;;;;;;4.70;3.60;;;;;;;;;;5026733;28;20189;-86
2021/09/02 13:54:13;;;;;;;11.15;3.28;;;;;;;;;;5014023;28;20234;-87
2021/09/02 13:57:18;;;;;;;5.18;3.90;;;;;;;;;;4995643;28;20206;-86
2021/09/02 14:00:22;;;;;;;8.02;3.80;;;;;;;;;;5003105;28;20640;-86
2021/09/02 14:03:27;;;;;;;7.68;3.80;;;;;;;;;;5013293;28;20648;-87
2021/09/02 14:06:31;;;;;;;5.30;3.80;;;;;;;;;;4983942;28;20656;-87
2021/09/02 14:09:35;;;;;;;5.68;3.50;;;;;;;;;;5000536;28;20201;-87
2021/09/02 14:12:39;;;;;;;5.75;3.70;;;;;;;;;;5014627;28;20209;-87
2021/09/02 14:15:43;;;;;;;5.70;4.18;;;;;;;;;;5003503;28;20181;-86
2021/09/02 14:18:48;;;;;;;5.82;3.97;;;;;;;;;;5002954;28;20663;-86
2021/09/02 14:21:52;;;;;;;4.78;4.00;;;;;;;;;;5002755;28;20196;-86
2021/09/02 14:24:56;;;;;;;8.68;4.25;;;;;;;;;;5014316;28;20219;-87
2021/09/02 14:28:00;;;;;;;8.43;4.28;;;;;;;;;;5013887;28;20200;-86
2021/09/02 14:31:04;;;;;;;7.90;4.47;;;;;;;;;;5003139;28;20197;-86
2021/09/02 14:34:08;;;;;;;18.25;4.90;;;;;;;;;;5001954;28;20221;-86
2021/09/02 14:37:12;;;;;;;7.40;4.45;;;;;;;;;;5018720;28;20191;-87
2021/09/02 14:40:16;;;;;;;9.13;4.35;;;;;;;;;;4991725;28;20546;-86
2021/09/02 14:43:20;;;;;;;5.93;4.18;;;;;;;;;;5002285;28;20189;-86
2021/09/02 14:46:24;;;;;;;5.97;3.70;;;;;;;;;;4991596;28;20190;-86
2021/09/02 14:49:28;;;;;;;10.55;4.20;;;;;;;;;;5002412;28;20204;-87
2021/09/02 14:52:32;;;;;;;5.65;3.72;;;;;;;;;;5002429;28;20192;-86
2021/09/02 14:55:36;;;;;;;6.75;4.20;;;;;;;;;;4991377;28;20236;-86
2021/09/02 14:58:41;;;;;;;8.95;4.57;;;;;;;;;;5001518;28;20198;-85
2021/09/02 15:01:46;;;;;;;9.45;4.10;;;;;;;;;;5002522;28;20201;-86
2021/09/02 15:04:50;;;;;;;7.63;4.68;;;;;;;;;;5013387;28;20217;-86
2021/09/02 15:07:55;;;;;;;6.00;4.05;;;;;;;;;;4991145;28;20195;-86
2021/09/02 15:10:59;;;;;;;6.13;4.00;;;;;;;;;;5013875;28;20182;-86
2021/09/02 15:14:03;;;;;;;4.57;4.07;;;;;;;;;;5002058;28;20713;-86
2021/09/02 15:17:07;;;;;;;9.30;4.80;;;;;;;;;;5013743;28;20201;-86
2021/09/02 15:20:12;;;;;;;7.83;4.13;;;;;;;;;;5002699;28;20191;-87
2021/09/02 15:23:16;;;;;;;13.97;4.10;;;;;;;;;;5013871;28;20184;-86
2021/09/02 15:26:21;;;;;;;7.10;3.93;;;;;;;;;;5014712;28;20192;-85
2021/09/02 15:29:24;;;;;;;4.70;3.93;;;;;;;;;;5017447;28;20200;-85
2021/09/02 15:32:30;;;;;;;4.67;4.17;;;;;;;;;;5004658;28;20202;-90
2021/09/02 15:35:34;;;;;;;4.30;3.87;;;;;;;;;;5010743;28;20210;-90
2021/09/02 15:38:41;;;;;;;4.97;4.30;;;;;;;;;;5010900;28;20181;-90
2021/09/02 15:41:45;;;;;;;5.00;3.83;;;;;;;;;;5021792;28;20180;-90
2021/09/02 15:44:49;;;;;;;6.10;4.33;;;;;;;;;;4993050;28;20227;-90
2021/09/02 15:47:53;;;;;;;7.03;4.20;;;;;;;;;;5002399;28;20187;-89
2021/09/02 15:50:59;;;;;;;6.37;4.17;;;;;;;;;;4994664;28;20194;-89
2021/09/02 15:54:04;;;;;;;6.50;4.27;;;;;;;;;;4993665;28;20229;-88
2021/09/02 15:57:08;;;;;;;5.00;3.77;;;;;;;;;;4994757;28;20185;-88
2021/09/02 16:00:13;;;;;;;7.57;4.17;;;;;;;;;;5005617;28;20201;-88
2021/09/02 16:03:16;;;;;;;5.97;3.53;;;;;;;;;;4994214;28;20194;-88
2021/09/02 16:06:21;;;;;;;5.90;4.33;;;;;;;;;;5005990;28;20174;-89
2021/09/02 16:09:25;;;;;;;7.73;4.37;;;;;;;;;;5017097;28;20189;-89
2021/09/02 16:12:29;;;;;;;5.70;3.70;;;;;;;;;;5005941;28;20609;-88
2021/09/02 16:15:33;;;;;;;5.87;4.27;;;;;;;;;;5005305;28;20218;-89
2021/09/02 16:18:38;;;;;;;6.73;4.50;;;;;;;;;;5005741;28;20201;-88
2021/09/02 16:21:43;;;;;;;4.93;3.67;;;;;;;;;;4994397;28;20205;-89
2021/09/02 16:24:47;;;;;;;8.43;4.60;;;;;;;;;;5005082;28;20221;-88
2021/09/02 16:27:52;;;;;;;7.17;4.10;;;;;;;;;;5005116;28;20182;-88
2021/09/02 16:30:57;;;;;;;6.33;3.90;;;;;;;;;;4994208;28;20521;-88
2021/09/02 16:34:01;;;;;;;7.13;4.80;;;;;;;;;;4993572;28;20229;-88
2021/09/02 16:37:08;;;;;;;13.27;4.60;;;;;;;;;;5004961;28;20193;-89
2021/09/02 16:40:12;;;;;;;6.67;4.57;;;;;;;;;;4994078;28;20178;-88
2021/09/02 16:43:17;;;;;;;7.33;4.43;;;;;;;;;;5005002;28;20186;-88
2021/09/02 16:46:24;;;;;;;7.60;4.43;;;;;;;;;;5005102;28;20178;-88
2021/09/02 16:49:29;;;;;;;6.10;4.43;;;;;;;;;;4993746;28;20186;-88
2021/09/02 16:52:34;;;;;;;6.23;4.20;;;;;;;;;;5016308;28;20178;-88
2021/09/02 16:55:37;;;;;;;5.33;4.10;;;;;;;;;;5016074;28;20221;-88
2021/09/02 16:58:42;;;;;;;6.87;4.63;;;;;;;;;;4993841;28;20177;-89
2021/09/02 17:01:47;;;;;;;4.67;4.07;;;;;;;;;;5004060;28;20194;-89
2021/09/02 17:04:51;;;;;;;5.67;4.00;;;;;;;;;;5004495;28;20553;-88
2021/09/02 17:07:55;;;;;;;5.63;4.23;;;;;;;;;;4993571;28;20656;-88
2021/09/02 17:10:59;;;;;;;5.53;4.30;;;;;;;;;;5004441;28;20629;-88
2021/09/02 17:14:03;;;;;;;6.30;4.30;;;;;;;;;;4992998;28;20232;-88
2021/09/02 17:17:07;;;;;;;6.77;4.13;;;;;;;;;;4993258;28;20204;-88
2021/09/02 17:20:13;;;;;;;6.43;4.37;;;;;;;;;;4993065;28;20197;-88
2021/09/02 17:23:17;;;;;;;6.50;4.47;;;;;;;;;;5004470;28;20526;-88
2021/09/02 17:26:20;;;;;;;7.77;4.40;;;;;;;;;;4993024;28;20189;-88
2021/09/02 17:29:25;;;;;;;14.87;5.00;;;;;;;;;;4992701;28;20200;-88
2021/09/02 17:32:29;;;;;;;11.77;4.83;;;;;;;;;;5004046;28;20196;-88
2021/09/02 17:35:33;;;;;;;17.20;5.27;;;;;;;;;;5003827;28;20225;-88
2021/09/02 17:38:38;;;;;;;16.20;4.97;;;;;;;;;;5015735;28;20185;-88
2021/09/02 17:41:42;;;;;;;34.53;5.10;;;;;;;;;;4992824;28;20181;-88
2021/09/02 17:44:46;;;;;;;26.20;5.13;;;;;;;;;;4992397;28;20229;-88
2021/09/02 17:47:51;;;;;;;16.77;5.20;;;;;;;;;;5003832;28;20201;-89
2021/09/02 17:50:55;;;;;;;6.53;4.97;;;;;;;;;;4992959;28;20202;-88
2021/09/02 17:53:59;;;;;;;8.13;4.40;;;;;;;;;;4992805;28;20217;-88
2021/09/02 17:57:05;;;;;;;7.43;5.20;;;;;;;;;;4992502;28;20178;-88
2021/09/02 18:00:10;;;;;;;5.37;4.53;;;;;;;;;;4992173;28;20537;-88
2021/09/02 18:03:14;;;;;;;9.03;4.73;;;;;;;;;;5003259;28;20538;-87
2021/09/02 18:06:18;;;;;;;6.60;4.93;;;;;;;;;;4992576;28;20169;-87
2021/09/02 18:09:23;;;;;;;6.30;4.83;;;;;;;;;;5014903;28;20190;-88
2021/09/02 18:12:26;;;;;;;6.60;4.73;;;;;;;;;;5003062;28;20181;-88
2021/09/02 18:15:31;;;;;;;6.57;4.83;;;;;;;;;;5002703;28;20229;-88
2021/09/02 18:18:35;;;;;;;5.80;4.50;;;;;;;;;;5003513;28;20625;-88
2021/09/02 18:21:39;;;;;;;7.03;4.77;;;;;;;;;;5003398;28;20185;-88
2021/09/02 18:24:43;;;;;;;6.30;4.90;;;;;;;;;;4991915;28;20217;-88